createdAt,value
2017-01-25T00:00:29.363Z,72.52
2017-01-25T00:01:38.319Z,72.8
2017-01-25T00:02:47.279Z,72.8
2017-01-25T00:03:56.234Z,72.71
2017-01-25T00:05:05.185Z,72.61
2017-01-25T00:06:14.147Z,72.99
2017-01-25T00:07:23.105Z,73.08
2017-01-25T00:08:32.919Z,72.52
2017-01-25T00:09:44.550Z,72.52
2017-01-25T00:10:54.827Z,72.8
2017-01-25T00:12:05.138Z,72.71
2017-01-25T00:13:15.234Z,72.89
2017-01-25T00:14:25.658Z,72.61
2017-01-25T00:15:37.937Z,73.08
2017-01-25T00:16:48.597Z,72.89
2017-01-25T00:18:00.700Z,72.99
2017-01-25T00:19:12.431Z,73.08
2017-01-25T00:20:25.599Z,72.71
2017-01-25T00:21:36.812Z,72.8
2017-01-25T00:22:48.165Z,72.42
2017-01-25T00:24:00.307Z,72.8
2017-01-25T00:25:12.963Z,72.8
2017-01-25T00:26:22.905Z,72.52
2017-01-25T00:27:34.980Z,72.71
2017-01-25T00:28:45.531Z,72.8
2017-01-25T00:29:56.182Z,72.61
2017-01-25T00:31:05.460Z,72.8
2017-01-25T00:32:14.412Z,72.8
2017-01-25T00:33:26.399Z,72.04
2017-01-25T00:34:35.355Z,72.23
2017-01-25T00:35:47.074Z,72.23
2017-01-25T00:36:57.902Z,72.52
2017-01-25T00:38:07.355Z,72.23
2017-01-25T00:39:19.748Z,72.23
2017-01-25T00:40:31.677Z,72.23
2017-01-25T00:41:40.912Z,72.33
2017-01-25T00:42:49.860Z,72.14
2017-01-25T00:43:58.817Z,72.8
2017-01-25T00:45:07.776Z,72.89
2017-01-25T00:46:16.755Z,72.8
2017-01-25T00:47:25.707Z,72.8
2017-01-25T00:48:34.753Z,72.52
2017-01-25T00:49:43.724Z,72.8
2017-01-25T00:50:52.702Z,72.61
2017-01-25T00:52:01.657Z,72.71
2017-01-25T00:53:10.612Z,72.14
2017-01-25T00:54:19.564Z,72.33
2017-01-25T00:55:28.517Z,72.33
2017-01-25T00:56:37.573Z,72.23
2017-01-25T00:57:46.561Z,72.14
2017-01-25T00:58:55.519Z,72.23
2017-01-25T01:00:04.472Z,72.42
2017-01-25T01:01:13.430Z,72.23
2017-01-25T01:02:22.378Z,72.42
2017-01-25T01:03:31.333Z,72.23
2017-01-25T01:04:40.287Z,72.42
2017-01-25T01:05:49.330Z,72.8
2017-01-25T01:06:58.286Z,72.71
2017-01-25T01:08:07.243Z,72.89
2017-01-25T01:09:16.200Z,72.52
2017-01-25T01:10:25.173Z,72.52
2017-01-25T01:11:34.126Z,72.33
2017-01-25T01:12:43.092Z,72.23
2017-01-25T01:13:52.051Z,72.52
2017-01-25T01:15:01.094Z,72.42
2017-01-25T01:16:10.053Z,72.52
2017-01-25T01:17:19.003Z,72.04
2017-01-25T01:18:27.957Z,72.23
2017-01-25T01:19:36.908Z,72.04
2017-01-25T01:20:45.863Z,72.04
2017-01-25T01:21:54.823Z,72.14
2017-01-25T01:23:03.779Z,71.85
2017-01-25T01:24:12.737Z,71.57
2017-01-25T01:25:21.693Z,71.85
2017-01-25T01:26:30.645Z,71.95
2017-01-25T01:27:39.603Z,72.04
2017-01-25T01:28:48.558Z,71.57
2017-01-25T01:29:57.519Z,71.57
2017-01-25T01:31:06.478Z,71.47
2017-01-25T01:32:15.435Z,71.57
2017-01-25T01:33:24.391Z,71.57
2017-01-25T01:34:33.348Z,71.85
2017-01-25T01:35:42.304Z,71.76
2017-01-25T01:36:51.257Z,71.47
2017-01-25T01:38:00.209Z,71.38
2017-01-25T01:39:09.171Z,71.95
2017-01-25T01:40:18.121Z,71.85
2017-01-25T01:41:27.075Z,71.85
2017-01-25T01:42:36.028Z,71.66
2017-01-25T01:43:44.984Z,71.95
2017-01-25T01:44:53.938Z,71.85
2017-01-25T01:46:02.925Z,71.85
2017-01-25T01:47:11.880Z,72.33
2017-01-25T01:48:20.837Z,71.85
2017-01-25T01:49:29.794Z,71.85
2017-01-25T01:50:38.761Z,71.76
2017-01-25T01:51:47.714Z,71.85
2017-01-25T01:52:56.674Z,71.76
2017-01-25T01:54:05.625Z,71.76
2017-01-25T01:55:14.669Z,71.76
2017-01-25T01:56:23.621Z,71.76
2017-01-25T01:57:32.573Z,71.85
2017-01-25T01:58:41.526Z,71.47
2017-01-25T01:59:50.481Z,71.28
2017-01-25T02:00:59.434Z,72.04
2017-01-25T02:02:08.390Z,71.95
2017-01-25T02:03:17.344Z,71.66
2017-01-25T02:04:26.296Z,71.66
2017-01-25T02:05:35.337Z,71.47
2017-01-25T02:06:44.299Z,71.66
2017-01-25T02:07:53.254Z,71.66
2017-01-25T02:09:02.211Z,71.66
2017-01-25T02:10:11.170Z,71.47
2017-01-25T02:11:20.123Z,71.66
2017-01-25T02:12:29.079Z,71.38
2017-01-25T02:13:38.123Z,71.57
2017-01-25T02:14:47.077Z,71.95
2017-01-25T02:15:56.029Z,72.04
2017-01-25T02:17:05.073Z,71.95
2017-01-25T02:18:14.029Z,71.57
2017-01-25T02:19:22.985Z,71.76
2017-01-25T02:20:31.943Z,72.04
2017-01-25T02:21:40.899Z,71.76
2017-01-25T02:22:49.856Z,71.66
2017-01-25T02:23:58.805Z,71.57
2017-01-25T02:25:07.758Z,71.85
2017-01-25T02:26:16.709Z,71.85
2017-01-25T02:27:25.661Z,71.85
2017-01-25T02:28:34.614Z,71.95
2017-01-25T02:29:43.565Z,71.85
2017-01-25T02:30:52.520Z,71.95
2017-01-25T02:32:01.477Z,71.38
2017-01-25T02:33:10.437Z,71.85
2017-01-25T02:34:19.519Z,71.85
2017-01-25T02:35:28.474Z,71.95
2017-01-25T02:36:37.515Z,71.57
2017-01-25T02:37:46.472Z,71.57
2017-01-25T02:38:55.429Z,71.66
2017-01-25T02:40:04.388Z,71.47
2017-01-25T02:41:13.341Z,71.47
2017-01-25T02:42:22.382Z,72.04
2017-01-25T02:43:31.336Z,71.95
2017-01-25T02:44:40.302Z,71.57
2017-01-25T02:45:49.258Z,71.66
2017-01-25T02:46:58.219Z,71.57
2017-01-25T02:48:07.176Z,71.19
2017-01-25T02:49:16.125Z,71.09
2017-01-25T02:50:25.079Z,71.19
2017-01-25T02:51:34.034Z,71.09
2017-01-25T02:52:42.986Z,71.28
2017-01-25T02:53:51.939Z,70.81
2017-01-25T02:55:00.898Z,70.81
2017-01-25T02:56:10.263Z,71.09
2017-01-25T02:57:19.218Z,70.81
2017-01-25T02:58:28.181Z,71
2017-01-25T02:59:37.139Z,71.09
2017-01-25T03:00:46.092Z,71
2017-01-25T03:01:55.045Z,71
2017-01-25T03:03:03.999Z,71.09
2017-01-25T03:04:12.984Z,71.09
2017-01-25T03:05:21.939Z,71.28
2017-01-25T03:06:30.914Z,71.19
2017-01-25T03:07:39.900Z,71
2017-01-25T03:08:48.855Z,71.38
2017-01-25T03:09:57.811Z,71.57
2017-01-25T03:11:06.764Z,71.57
2017-01-25T03:12:15.722Z,71.76
2017-01-25T03:13:24.675Z,71.76
2017-01-25T03:14:33.630Z,72.52
2017-01-25T03:15:42.585Z,72.23
2017-01-25T03:16:51.538Z,72.52
2017-01-25T03:18:00.614Z,72.33
2017-01-25T03:19:09.574Z,72.23
2017-01-25T03:20:18.526Z,72.33
2017-01-25T03:21:27.477Z,71.85
2017-01-25T03:22:36.431Z,72.04
2017-01-25T03:23:45.385Z,71.66
2017-01-25T03:24:54.426Z,71.47
2017-01-25T03:26:03.381Z,71.47
2017-01-25T03:27:12.339Z,71.47
2017-01-25T03:28:21.294Z,71.09
2017-01-25T03:29:30.275Z,71
2017-01-25T03:30:39.225Z,71.09
2017-01-25T03:31:48.180Z,71.28
2017-01-25T03:32:57.161Z,70.9
2017-01-25T03:34:06.138Z,71.09
2017-01-25T03:35:15.496Z,71.09
2017-01-25T03:36:24.447Z,71.19
2017-01-25T03:37:33.405Z,71.28
2017-01-25T03:38:42.441Z,71.09
2017-01-25T03:39:51.394Z,71.19
2017-01-25T03:41:00.352Z,71.09
2017-01-25T03:42:09.305Z,71.19
2017-01-25T03:43:18.255Z,71
2017-01-25T03:44:27.215Z,71.19
2017-01-25T03:45:36.287Z,71.09
2017-01-25T03:46:45.245Z,71.28
2017-01-25T03:47:54.197Z,71.19
2017-01-25T03:49:03.177Z,71.28
2017-01-25T03:50:12.128Z,71.47
2017-01-25T03:51:21.100Z,71.47
2017-01-25T03:52:30.050Z,71.76
2017-01-25T03:53:39.001Z,72.23
2017-01-25T03:54:47.956Z,72.23
2017-01-25T03:55:56.909Z,72.8
2017-01-25T03:57:05.856Z,73.18
2017-01-25T03:58:14.811Z,72.52
2017-01-25T03:59:23.769Z,72.8
2017-01-25T04:00:32.726Z,72.33
2017-01-25T04:01:41.681Z,72.04
2017-01-25T04:02:50.651Z,71.95
2017-01-25T04:03:59.606Z,71.57
2017-01-25T04:05:08.574Z,71.38
2017-01-25T04:06:17.531Z,71.57
2017-01-25T04:07:26.527Z,71.66
2017-01-25T04:08:35.487Z,71.47
2017-01-25T04:09:44.871Z,71.95
2017-01-25T04:10:53.921Z,72.14
2017-01-25T04:12:03.282Z,72.52
2017-01-25T04:13:12.342Z,72.8
2017-01-25T04:14:21.295Z,72.8
2017-01-25T04:15:30.251Z,73.27
2017-01-25T04:16:39.208Z,73.46
2017-01-25T04:17:48.163Z,73.65
2017-01-25T04:18:57.116Z,73.18
2017-01-25T04:20:06.071Z,73.65
2017-01-25T04:21:15.027Z,73.75
2017-01-25T04:22:23.980Z,73.37
2017-01-25T04:23:32.941Z,73.37
2017-01-25T04:24:41.892Z,73.08
2017-01-25T04:25:50.842Z,72.52
2017-01-25T04:26:59.796Z,72.99
2017-01-25T04:28:08.764Z,72.8
2017-01-25T04:29:17.727Z,72.8
2017-01-25T04:30:26.675Z,72.04
2017-01-25T04:31:35.633Z,72.23
2017-01-25T04:32:44.589Z,72.33
2017-01-25T04:33:53.535Z,72.33
2017-01-25T04:35:02.484Z,72.8
2017-01-25T04:36:11.441Z,72.61
2017-01-25T04:37:20.397Z,72.52
2017-01-25T04:38:29.358Z,72.42
2017-01-25T04:39:38.304Z,72.61
2017-01-25T04:40:47.256Z,72.71
2017-01-25T04:41:56.210Z,72.61
2017-01-25T04:43:05.169Z,72.61
2017-01-25T04:44:14.187Z,72.71
2017-01-25T04:45:23.149Z,72.71
2017-01-25T04:46:32.104Z,73.46
2017-01-25T04:47:41.049Z,73.46
2017-01-25T04:48:50.000Z,73.27
2017-01-25T04:49:58.957Z,73.65
2017-01-25T04:51:07.913Z,73.84
2017-01-25T04:52:16.901Z,73.84
2017-01-25T04:53:25.853Z,73.75
2017-01-25T04:54:34.892Z,73.75
2017-01-25T04:55:43.928Z,73.37
2017-01-25T04:56:52.892Z,73.37
2017-01-25T04:58:01.937Z,73.08
2017-01-25T04:59:10.890Z,73.08
2017-01-25T05:00:20.854Z,72.61
2017-01-25T05:01:29.812Z,72.71
2017-01-25T05:02:38.767Z,72.33
2017-01-25T05:03:47.724Z,72.33
2017-01-25T05:04:56.680Z,72.04
2017-01-25T05:06:05.679Z,72.52
2017-01-25T05:07:14.639Z,72.33
2017-01-25T05:08:23.589Z,72.04
2017-01-25T05:09:32.540Z,72.14
2017-01-25T05:10:41.584Z,72.14
2017-01-25T05:11:50.538Z,71.85
2017-01-25T05:12:59.628Z,71.57
2017-01-25T05:14:08.602Z,71.95
2017-01-25T05:15:17.561Z,71.95
2017-01-25T05:16:26.513Z,71.38
2017-01-25T05:17:35.470Z,71.38
2017-01-25T05:18:44.421Z,72.04
2017-01-25T05:19:53.373Z,71.95
2017-01-25T05:21:02.326Z,71.66
2017-01-25T05:22:11.282Z,71.57
2017-01-25T05:23:20.243Z,71.76
2017-01-25T05:24:29.203Z,71.66
2017-01-25T05:25:38.162Z,71.47
2017-01-25T05:26:47.111Z,71.66
2017-01-25T05:27:56.073Z,71.85
2017-01-25T05:29:05.031Z,71.76
2017-01-25T05:30:13.987Z,71.47
2017-01-25T05:31:22.939Z,71.66
2017-01-25T05:32:31.897Z,71.47
2017-01-25T05:33:40.848Z,71.47
2017-01-25T05:34:49.802Z,71.95
2017-01-25T05:35:58.853Z,71.85
2017-01-25T05:37:07.983Z,71.66
2017-01-25T05:38:16.934Z,71.95
2017-01-25T05:39:25.890Z,71.76
2017-01-25T05:40:34.937Z,71.85
2017-01-25T05:41:43.890Z,72.14
2017-01-25T05:42:52.844Z,72.14
2017-01-25T05:44:01.973Z,72.04
2017-01-25T05:45:10.930Z,72.19
2017-01-25T05:46:19.882Z,72.33
2017-01-25T05:47:28.924Z,72.52
2017-01-25T05:48:37.871Z,72.1
2017-01-25T05:49:46.826Z,72.48
2017-01-25T05:50:55.778Z,72.89
2017-01-25T05:52:04.830Z,72.23
2017-01-25T05:53:13.807Z,72.33
2017-01-25T05:54:22.853Z,72.33
2017-01-25T05:55:31.894Z,72.42
2017-01-25T05:56:40.860Z,72.23
2017-01-25T05:57:49.816Z,72.52
2017-01-25T05:58:58.775Z,72.04
2017-01-25T06:00:07.735Z,72.14
2017-01-25T06:01:16.686Z,72.14
2017-01-25T06:02:25.645Z,72.04
2017-01-25T06:03:34.607Z,72.42
2017-01-25T06:04:43.561Z,72.33
2017-01-25T06:05:52.516Z,71.57
2017-01-25T06:07:01.464Z,72.42
2017-01-25T06:08:10.413Z,71.76
2017-01-25T06:09:19.377Z,71.85
2017-01-25T06:10:28.333Z,71.76
2017-01-25T06:11:37.316Z,71.66
2017-01-25T06:12:46.278Z,72.04
2017-01-25T06:13:55.263Z,72.23
2017-01-25T06:15:04.222Z,71.76
2017-01-25T06:16:13.184Z,71.85
2017-01-25T06:17:22.141Z,71.95
2017-01-25T06:18:31.097Z,71.85
2017-01-25T06:19:40.050Z,71.76
2017-01-25T06:20:49.001Z,71.95
2017-01-25T06:21:58.042Z,71.76
2017-01-25T06:23:06.994Z,71.76
2017-01-25T06:24:15.951Z,71.76
2017-01-25T06:25:24.908Z,71.95
2017-01-25T06:26:33.861Z,71.95
2017-01-25T06:27:42.902Z,71.38
2017-01-25T06:28:51.852Z,71.66
2017-01-25T06:30:00.806Z,72.04
2017-01-25T06:31:09.760Z,71.47
2017-01-25T06:32:18.718Z,71.76
2017-01-25T06:33:27.672Z,71.57
2017-01-25T06:34:36.625Z,71.47
2017-01-25T06:35:45.572Z,71.66
2017-01-25T06:36:54.540Z,71.85
2017-01-25T06:38:03.499Z,71.66
2017-01-25T06:39:12.455Z,71.38
2017-01-25T06:40:21.411Z,71.66
2017-01-25T06:41:30.361Z,71.95
2017-01-25T06:42:39.316Z,71.95
2017-01-25T06:43:48.273Z,71.47
2017-01-25T06:44:57.232Z,72.04
2017-01-25T06:46:06.184Z,71.76
2017-01-25T06:47:15.136Z,72.04
2017-01-25T06:48:24.087Z,72.23
2017-01-25T06:49:33.042Z,72.14
2017-01-25T06:50:42.020Z,72.23
2017-01-25T06:51:51.063Z,72.14
2017-01-25T06:53:00.012Z,72.04
2017-01-25T06:54:08.965Z,72.23
2017-01-25T06:55:17.917Z,71.57
2017-01-25T06:56:26.867Z,71.76
2017-01-25T06:57:35.818Z,71.57
2017-01-25T06:58:44.783Z,71.38
2017-01-25T06:59:53.739Z,71.38
2017-01-25T07:01:02.695Z,71.66
2017-01-25T07:02:11.659Z,71.57
2017-01-25T07:03:20.613Z,71.47
2017-01-25T07:04:29.562Z,71.76
2017-01-25T07:05:38.517Z,71
2017-01-25T07:06:47.475Z,71.19
2017-01-25T07:07:56.479Z,70.9
2017-01-25T07:09:05.431Z,71.19
2017-01-25T07:10:14.382Z,71.09
2017-01-25T07:11:23.336Z,71.09
2017-01-25T07:12:32.370Z,71.28
2017-01-25T07:13:41.323Z,71.19
2017-01-25T07:14:50.274Z,71.09
2017-01-25T07:15:59.228Z,71.19
2017-01-25T07:17:08.178Z,70.9
2017-01-25T07:18:17.133Z,71.28
2017-01-25T07:19:26.084Z,70.81
2017-01-25T07:20:35.040Z,70.81
2017-01-25T07:21:43.991Z,70.81
2017-01-25T07:22:52.939Z,70.72
2017-01-25T07:24:01.979Z,70.81
2017-01-25T07:25:10.950Z,71
2017-01-25T07:26:19.903Z,71
2017-01-25T07:27:28.861Z,71
2017-01-25T07:28:37.820Z,71.19
2017-01-25T07:29:46.780Z,71.19
2017-01-25T07:30:55.736Z,71.28
2017-01-25T07:32:04.690Z,71.28
2017-01-25T07:33:13.639Z,71.19
2017-01-25T07:34:22.592Z,71.66
2017-01-25T07:35:31.543Z,72.33
2017-01-25T07:36:40.498Z,72.71
2017-01-25T07:37:49.455Z,73.18
2017-01-25T07:38:58.409Z,72.61
2017-01-25T07:40:07.361Z,72.89
2017-01-25T07:41:16.316Z,72.71
2017-01-25T07:42:25.269Z,72.89
2017-01-25T07:43:34.229Z,72.89
2017-01-25T07:44:43.189Z,72.89
2017-01-25T07:45:52.142Z,72.89
2017-01-25T07:47:01.098Z,73.37
2017-01-25T07:48:10.052Z,73.37
2017-01-25T07:49:19.003Z,73.65
2017-01-25T07:50:27.953Z,73.94
2017-01-25T07:51:36.904Z,73.56
2017-01-25T07:52:45.859Z,73.65
2017-01-25T07:53:54.817Z,74.13
2017-01-25T07:55:03.774Z,74.32
2017-01-25T07:56:12.730Z,73.84
2017-01-25T07:57:21.689Z,73.75
2017-01-25T07:58:30.639Z,74.32
2017-01-25T07:59:39.610Z,74.41
2017-01-25T08:00:48.565Z,74.51
2017-01-25T08:01:57.513Z,74.03
2017-01-25T08:03:06.467Z,74.13
2017-01-25T08:04:15.418Z,74.32
2017-01-25T08:05:24.370Z,73.65
2017-01-25T08:06:33.321Z,73.84
2017-01-25T08:07:42.273Z,73.65
2017-01-25T08:08:51.225Z,73.18
2017-01-25T08:10:00.175Z,73.46
2017-01-25T08:11:09.129Z,72.89
2017-01-25T08:12:18.082Z,72.8
2017-01-25T08:13:27.036Z,72.61
2017-01-25T08:14:35.990Z,72.52
2017-01-25T08:15:44.945Z,72.23
2017-01-25T08:16:53.984Z,72.42
2017-01-25T08:18:02.934Z,72.14
2017-01-25T08:19:11.893Z,71.76
2017-01-25T08:20:20.851Z,71.76
2017-01-25T08:21:29.803Z,71.85
2017-01-25T08:22:38.788Z,71.76
2017-01-25T08:23:47.739Z,71.28
2017-01-25T08:24:56.691Z,71.19
2017-01-25T08:26:05.644Z,71.19
2017-01-25T08:27:14.600Z,71.28
2017-01-25T08:28:23.557Z,71.28
2017-01-25T08:29:32.512Z,71.19
2017-01-25T08:30:41.468Z,71.19
2017-01-25T08:31:50.427Z,71.09
2017-01-25T08:32:59.381Z,71.09
2017-01-25T08:34:08.347Z,71
2017-01-25T08:35:17.310Z,71
2017-01-25T08:36:26.294Z,70.81
2017-01-25T08:37:35.345Z,71.03
2017-01-25T08:38:44.387Z,70.43
2017-01-25T08:39:53.351Z,70.65
2017-01-25T08:41:02.312Z,70.65
2017-01-25T08:42:11.266Z,70.43
2017-01-25T08:43:20.219Z,70.75
2017-01-25T08:44:29.180Z,70.34
2017-01-25T08:45:38.135Z,70.75
2017-01-25T08:46:47.094Z,70.47
2017-01-25T08:47:56.044Z,70.65
2017-01-25T08:49:04.993Z,70.37
2017-01-25T08:50:13.966Z,70.09
2017-01-25T08:51:23.243Z,69.9
2017-01-25T08:52:32.201Z,70.09
2017-01-25T08:53:41.155Z,69.9
2017-01-25T08:54:50.114Z,69.71
2017-01-25T08:55:59.073Z,70.18
2017-01-25T08:57:08.498Z,69.99
2017-01-25T08:58:17.529Z,69.71
2017-01-25T08:59:26.572Z,69.9
2017-01-25T09:00:35.593Z,69.33
2017-01-25T09:01:44.553Z,70.18
2017-01-25T09:02:53.526Z,69.8
2017-01-25T09:04:02.482Z,69.71
2017-01-25T09:05:11.471Z,70.18
2017-01-25T09:06:20.431Z,69.42
2017-01-25T09:07:29.439Z,69.42
2017-01-25T09:08:38.495Z,69.71
2017-01-25T09:09:47.539Z,69.52
2017-01-25T09:10:56.495Z,69.42
2017-01-25T09:12:05.564Z,69.61
2017-01-25T09:13:14.520Z,69.52
2017-01-25T09:14:23.475Z,69.33
2017-01-25T09:15:32.429Z,68.95
2017-01-25T09:16:41.468Z,69.04
2017-01-25T09:17:50.425Z,68.95
2017-01-25T09:18:59.387Z,68.85
2017-01-25T09:20:09.846Z,69.04
2017-01-25T09:21:21.695Z,69.04
2017-01-25T09:22:32.686Z,69.13
2017-01-25T09:23:42.806Z,69.13
2017-01-25T09:24:52.934Z,69.13
2017-01-25T09:26:04.516Z,69.23
2017-01-25T09:27:14.992Z,69.23
2017-01-25T09:28:26.015Z,69.04
2017-01-25T09:29:36.305Z,69.04
2017-01-25T09:30:47.107Z,68.95
2017-01-25T09:31:58.738Z,68.95
2017-01-25T09:33:09.447Z,68.95
2017-01-25T09:34:20.122Z,68.95
2017-01-25T09:35:31.429Z,69.13
2017-01-25T09:36:42.052Z,69.33
2017-01-25T09:37:53.012Z,69.52
2017-01-25T09:39:03.299Z,69.13
2017-01-25T09:40:14.341Z,68.85
2017-01-25T09:41:24.624Z,68.85
2017-01-25T09:42:35.588Z,68.85
2017-01-25T09:43:46.366Z,68.95
2017-01-25T09:44:56.288Z,68.95
2017-01-25T09:46:06.493Z,68.85
2017-01-25T09:47:16.668Z,69.04
2017-01-25T09:48:26.904Z,69.04
2017-01-25T09:49:37.403Z,68.95
2017-01-25T09:50:48.243Z,69.23
2017-01-25T09:51:59.267Z,68.76
2017-01-25T09:53:10.269Z,68.95
2017-01-25T09:54:21.535Z,68.38
2017-01-25T09:55:31.780Z,69.04
2017-01-25T09:56:42.330Z,68.48
2017-01-25T09:57:52.958Z,68.48
2017-01-25T09:59:03.071Z,68.66
2017-01-25T10:00:13.596Z,68.95
2017-01-25T10:01:25.246Z,68.66
2017-01-25T10:02:35.846Z,68.85
2017-01-25T10:03:46.553Z,68.66
2017-01-25T10:04:56.169Z,68.76
2017-01-25T10:06:05.336Z,68.57
2017-01-25T10:07:15.992Z,68.66
2017-01-25T10:08:26.189Z,68.48
2017-01-25T10:09:35.861Z,68.85
2017-01-25T10:10:45.587Z,68.76
2017-01-25T10:11:55.500Z,68.66
2017-01-25T10:13:05.920Z,68.38
2017-01-25T10:14:15.887Z,68.48
2017-01-25T10:15:26.062Z,68.57
2017-01-25T10:16:35.544Z,68.85
2017-01-25T10:17:44.502Z,68.57
2017-01-25T10:18:53.456Z,68.48
2017-01-25T10:20:03.051Z,68.85
2017-01-25T10:21:12.012Z,68.76
2017-01-25T10:22:21.052Z,68.57
2017-01-25T10:23:30.006Z,68.57
2017-01-25T10:24:38.963Z,68.66
2017-01-25T10:25:47.917Z,68.48
2017-01-25T10:26:56.879Z,68.85
2017-01-25T10:28:05.843Z,68.85
2017-01-25T10:29:14.801Z,68.85
2017-01-25T10:30:23.843Z,68.85
2017-01-25T10:31:32.799Z,68.57
2017-01-25T10:32:41.757Z,68.76
2017-01-25T10:33:50.713Z,68.76
2017-01-25T10:34:59.666Z,68.66
2017-01-25T10:36:08.618Z,68.41
2017-01-25T10:37:17.567Z,68.29
2017-01-25T10:38:26.609Z,68.13
2017-01-25T10:39:35.587Z,68.23
2017-01-25T10:40:44.544Z,67.9
2017-01-25T10:41:53.498Z,68.04
2017-01-25T10:43:02.871Z,68.04
2017-01-25T10:44:11.833Z,68.41
2017-01-25T10:45:20.877Z,67.94
2017-01-25T10:46:30.173Z,68.04
2017-01-25T10:47:39.503Z,67.85
2017-01-25T10:48:49.542Z,67.94
2017-01-25T10:49:59.225Z,67.85
2017-01-25T10:51:09.418Z,67.94
2017-01-25T10:52:19.761Z,68.23
2017-01-25T10:53:28.714Z,68.04
2017-01-25T10:54:38.519Z,68.32
2017-01-25T10:55:48.182Z,67.94
2017-01-25T10:56:57.818Z,67.85
2017-01-25T10:58:06.993Z,67.65
2017-01-25T10:59:17.000Z,68.04
2017-01-25T11:00:27.218Z,67.94
2017-01-25T11:01:36.186Z,67.75
2017-01-25T11:02:45.170Z,67.65
2017-01-25T11:03:54.127Z,67.75
2017-01-25T11:05:03.087Z,68.32
2017-01-25T11:06:12.498Z,67.75
2017-01-25T11:07:21.475Z,67.85
2017-01-25T11:08:30.433Z,67.94
2017-01-25T11:09:39.390Z,68.04
2017-01-25T11:10:48.338Z,67.65
2017-01-25T11:11:57.293Z,67.65
2017-01-25T11:13:06.250Z,67.65
2017-01-25T11:14:15.296Z,67.94
2017-01-25T11:15:24.250Z,67.65
2017-01-25T11:16:33.202Z,67.65
2017-01-25T11:17:42.155Z,67.75
2017-01-25T11:18:51.111Z,67.56
2017-01-25T11:20:00.067Z,67.85
2017-01-25T11:21:10.228Z,67.94
2017-01-25T11:22:19.541Z,67.85
2017-01-25T11:23:28.497Z,67.27
2017-01-25T11:24:38.164Z,67.27
2017-01-25T11:25:47.656Z,67.46
2017-01-25T11:26:57.257Z,67.37
2017-01-25T11:28:07.423Z,67.18
2017-01-25T11:29:19.620Z,67.18
2017-01-25T11:30:31.098Z,67.56
2017-01-25T11:31:40.902Z,67.37
2017-01-25T11:32:50.304Z,67.27
2017-01-25T11:33:59.258Z,67.27
2017-01-25T11:35:08.798Z,67.37
2017-01-25T11:36:17.970Z,67.27
2017-01-25T11:37:27.019Z,67.56
2017-01-25T11:38:36.410Z,67.18
2017-01-25T11:39:45.914Z,67.08
2017-01-25T11:40:54.872Z,67.56
2017-01-25T11:42:03.827Z,67.56
2017-01-25T11:43:13.829Z,67.56
2017-01-25T11:44:23.920Z,67.37
2017-01-25T11:45:33.955Z,67.37
2017-01-25T11:46:43.439Z,67.27
2017-01-25T11:47:52.389Z,67.46
2017-01-25T11:49:01.351Z,67.27
2017-01-25T11:50:10.641Z,67.27
2017-01-25T11:51:20.376Z,67.08
2017-01-25T11:52:30.542Z,67.18
2017-01-25T11:53:40.342Z,67.18
2017-01-25T11:54:50.588Z,66.89
2017-01-25T11:55:59.570Z,66.89
2017-01-25T11:57:08.525Z,67.37
2017-01-25T11:58:17.501Z,67.94
2017-01-25T11:59:26.458Z,67.56
2017-01-25T12:00:35.409Z,67.94
2017-01-25T12:01:44.364Z,68.51
2017-01-25T12:02:53.321Z,68.98
2017-01-25T12:04:02.276Z,68.79
2017-01-25T12:05:11.238Z,68.48
2017-01-25T12:06:20.193Z,68.76
2017-01-25T12:07:29.148Z,68.76
2017-01-25T12:08:38.100Z,68.66
2017-01-25T12:09:47.057Z,68.95
2017-01-25T12:10:56.012Z,69.61
2017-01-25T12:12:04.966Z,69.61
2017-01-25T12:13:13.923Z,69.13
2017-01-25T12:14:22.874Z,69.42
2017-01-25T12:15:31.833Z,69.61
2017-01-25T12:16:40.791Z,69.9
2017-01-25T12:17:49.747Z,69.42
2017-01-25T12:18:58.699Z,69.8
2017-01-25T12:20:07.688Z,70.47
2017-01-25T12:21:16.639Z,70.09
2017-01-25T12:22:25.588Z,70.37
2017-01-25T12:23:34.538Z,70.09
2017-01-25T12:24:43.500Z,69.9
2017-01-25T12:25:52.458Z,69.8
2017-01-25T12:27:01.418Z,70.09
2017-01-25T12:28:10.378Z,70.09
2017-01-25T12:29:19.331Z,69.99
2017-01-25T12:30:28.284Z,69.42
2017-01-25T12:31:37.239Z,69.33
2017-01-25T12:32:46.190Z,69.23
2017-01-25T12:33:55.149Z,69.04
2017-01-25T12:35:04.111Z,68.85
2017-01-25T12:36:13.074Z,69.27
2017-01-25T12:37:22.043Z,69.27
2017-01-25T12:38:31.005Z,68.98
2017-01-25T12:39:39.959Z,68.98
2017-01-25T12:40:48.929Z,68.89
2017-01-25T12:41:57.884Z,68.79
2017-01-25T12:43:06.845Z,68.7
2017-01-25T12:44:15.799Z,68.41
2017-01-25T12:45:24.755Z,68.51
2017-01-25T12:46:33.711Z,68.98
2017-01-25T12:47:42.667Z,68.23
2017-01-25T12:48:51.631Z,68.41
2017-01-25T12:50:00.593Z,68.41
2017-01-25T12:51:09.556Z,67.85
2017-01-25T12:52:18.513Z,68.13
2017-01-25T12:53:27.473Z,68.04
2017-01-25T12:54:36.521Z,68.13
2017-01-25T12:55:45.474Z,68.04
2017-01-25T12:56:54.429Z,68.04
2017-01-25T12:58:03.392Z,67.65
2017-01-25T12:59:12.351Z,68.04
2017-01-25T13:00:21.305Z,67.08
2017-01-25T13:01:31.389Z,67.27
2017-01-25T13:02:41.563Z,67.08
2017-01-25T13:03:51.917Z,67.37
2017-01-25T13:05:01.031Z,67.37
2017-01-25T13:06:11.319Z,66.89
2017-01-25T13:07:20.984Z,66.99
2017-01-25T13:08:29.938Z,66.55
2017-01-25T13:09:39.166Z,66.71
2017-01-25T13:10:48.839Z,66.83
2017-01-25T13:11:58.679Z,66.83
2017-01-25T13:13:08.343Z,66.36
2017-01-25T13:14:17.304Z,66.46
2017-01-25T13:15:26.264Z,66.36
2017-01-25T13:16:35.323Z,66.55
2017-01-25T13:17:45.184Z,66.36
2017-01-25T13:18:54.165Z,66.17
2017-01-25T13:20:03.183Z,66.46
2017-01-25T13:21:12.139Z,66.27
2017-01-25T13:22:21.103Z,66.74
2017-01-25T13:23:30.112Z,66.17
2017-01-25T13:24:39.069Z,66.36
2017-01-25T13:25:48.272Z,66.74
2017-01-25T13:26:57.230Z,66.36
2017-01-25T13:28:06.363Z,66.27
2017-01-25T13:29:15.321Z,66.33
2017-01-25T13:30:24.535Z,66.61
2017-01-25T13:31:33.494Z,66.52
2017-01-25T13:32:42.458Z,66.36
2017-01-25T13:33:52.017Z,66.33
2017-01-25T13:35:00.975Z,66.33
2017-01-25T13:36:09.930Z,66.17
2017-01-25T13:37:18.883Z,66.55
2017-01-25T13:38:27.834Z,66.36
2017-01-25T13:39:37.412Z,66.64
2017-01-25T13:40:46.364Z,66.46
2017-01-25T13:41:55.322Z,66.36
2017-01-25T13:43:04.286Z,66.27
2017-01-25T13:44:13.238Z,66.55
2017-01-25T13:45:22.314Z,66.08
2017-01-25T13:46:31.273Z,66.55
2017-01-25T13:47:40.896Z,66.36
2017-01-25T13:48:49.883Z,66.36
2017-01-25T13:49:58.840Z,66.36
2017-01-25T13:51:07.796Z,66.08
2017-01-25T13:52:16.754Z,65.79
2017-01-25T13:53:25.734Z,65.88
2017-01-25T13:54:35.145Z,65.5
2017-01-25T13:55:44.099Z,66.17
2017-01-25T13:56:53.215Z,66.08
2017-01-25T13:58:02.339Z,66.17
2017-01-25T13:59:11.296Z,66.27
2017-01-25T14:00:20.560Z,66.27
2017-01-25T14:01:29.939Z,66.17
2017-01-25T14:02:39.603Z,66.17
2017-01-25T14:03:49.003Z,66.27
2017-01-25T14:04:58.163Z,66.17
2017-01-25T14:06:07.290Z,66.08
2017-01-25T14:07:16.507Z,66.08
2017-01-25T14:08:25.577Z,65.6
2017-01-25T14:09:34.863Z,66.08
2017-01-25T14:10:44.400Z,66.08
2017-01-25T14:11:53.746Z,66.17
2017-01-25T14:13:02.950Z,66.08
2017-01-25T14:14:12.311Z,66.08
2017-01-25T14:15:21.828Z,66.27
2017-01-25T14:16:31.466Z,66.27
2017-01-25T14:17:40.914Z,66.17
2017-01-25T14:18:50.264Z,65.79
2017-01-25T14:19:59.533Z,65.98
2017-01-25T14:21:08.799Z,66.08
2017-01-25T14:22:18.064Z,66.27
2017-01-25T14:23:27.438Z,66.17
2017-01-25T14:24:36.891Z,66.27
2017-01-25T14:25:47.104Z,66.17
2017-01-25T14:26:57.208Z,65.98
2017-01-25T14:28:08.336Z,65.79
2017-01-25T14:29:17.647Z,65.88
2017-01-25T14:30:27.632Z,65.41
2017-01-25T14:31:36.762Z,65.69
2017-01-25T14:32:45.726Z,65.79
2017-01-25T14:33:54.715Z,65.69
2017-01-25T14:35:03.682Z,65.69
2017-01-25T14:36:12.642Z,65.6
2017-01-25T14:37:21.606Z,65.79
2017-01-25T14:38:30.567Z,65.31
2017-01-25T14:39:39.608Z,65.41
2017-01-25T14:40:48.561Z,65.6
2017-01-25T14:41:57.523Z,65.5
2017-01-25T14:43:06.482Z,65.22
2017-01-25T14:44:15.558Z,65.03
2017-01-25T14:45:24.514Z,64.94
2017-01-25T14:46:33.478Z,65.03
2017-01-25T14:47:42.507Z,65.22
2017-01-25T14:48:51.467Z,65.41
2017-01-25T14:50:00.428Z,65.22
2017-01-25T14:51:09.394Z,65.22
2017-01-25T14:52:18.349Z,65.31
2017-01-25T14:53:27.303Z,65.03
2017-01-25T14:54:36.262Z,65.31